sensor_id;sensor_type;location;lat;lon;timestamp;P1;durP1;ratioP1;P2;durP2;ratioP2
31262;SDS011;17892;52.080;9.006;2023-07-30T00:02:21;2.20;;;1.23;;
31262;SDS011;17892;52.080;9.006;2023-07-30T00:04:48;4.93;;;2.17;;
31262;SDS011;17892;52.080;9.006;2023-07-30T00:07:14;2.67;;;1.35;;
31262;SDS011;17892;52.080;9.006;2023-07-30T00:09:40;3.00;;;1.45;;
31262;SDS011;17892;52.080;9.006;2023-07-30T00:12:06;3.35;;;1.75;;
31262;SDS011;17892;52.080;9.006;2023-07-30T00:14:33;2.63;;;1.60;;
31262;SDS011;17892;52.080;9.006;2023-07-30T00:16:59;3.05;;;1.88;;
31262;SDS011;17892;52.080;9.006;2023-07-30T00:19:26;3.10;;;1.55;;
31262;SDS011;17892;52.080;9.006;2023-07-30T00:21:51;3.47;;;1.67;;
31262;SDS011;17892;52.080;9.006;2023-07-30T00:24:17;2.95;;;1.70;;
31262;SDS011;17892;52.080;9.006;2023-07-30T00:26:43;3.38;;;1.73;;
31262;SDS011;17892;52.080;9.006;2023-07-30T00:29:08;3.08;;;1.70;;
31262;SDS011;17892;52.080;9.006;2023-07-30T00:31:34;2.60;;;1.48;;
31262;SDS011;17892;52.080;9.006;2023-07-30T00:34:00;4.35;;;2.20;;
31262;SDS011;17892;52.080;9.006;2023-07-30T00:36:26;4.05;;;2.30;;
31262;SDS011;17892;52.080;9.006;2023-07-30T00:38:51;4.63;;;2.38;;
31262;SDS011;17892;52.080;9.006;2023-07-30T00:41:17;4.25;;;2.30;;
31262;SDS011;17892;52.080;9.006;2023-07-30T00:43:43;4.63;;;3.03;;
31262;SDS011;17892;52.080;9.006;2023-07-30T00:46:10;5.22;;;3.58;;
31262;SDS011;17892;52.080;9.006;2023-07-30T00:48:37;3.95;;;2.33;;
31262;SDS011;17892;52.080;9.006;2023-07-30T00:51:02;4.40;;;2.72;;
31262;SDS011;17892;52.080;9.006;2023-07-30T00:53:29;3.75;;;2.42;;
31262;SDS011;17892;52.080;9.006;2023-07-30T00:55:55;4.38;;;2.90;;
31262;SDS011;17892;52.080;9.006;2023-07-30T00:58:21;4.53;;;2.55;;
31262;SDS011;17892;52.080;9.006;2023-07-30T01:00:48;4.93;;;2.95;;
31262;SDS011;17892;52.080;9.006;2023-07-30T01:03:15;4.43;;;2.65;;
31262;SDS011;17892;52.080;9.006;2023-07-30T01:05:41;4.78;;;2.33;;
31262;SDS011;17892;52.080;9.006;2023-07-30T01:08:07;4.78;;;2.50;;
31262;SDS011;17892;52.080;9.006;2023-07-30T01:10:32;4.05;;;2.25;;
31262;SDS011;17892;52.080;9.006;2023-07-30T01:13:01;3.97;;;2.33;;
31262;SDS011;17892;52.080;9.006;2023-07-30T01:15:28;4.45;;;2.17;;
31262;SDS011;17892;52.080;9.006;2023-07-30T01:17:55;5.32;;;2.33;;
31262;SDS011;17892;52.080;9.006;2023-07-30T01:20:21;4.90;;;2.88;;
31262;SDS011;17892;52.080;9.006;2023-07-30T01:22:47;3.90;;;1.98;;
31262;SDS011;17892;52.080;9.006;2023-07-30T01:25:13;4.13;;;1.98;;
31262;SDS011;17892;52.080;9.006;2023-07-30T01:27:43;4.63;;;2.17;;
31262;SDS011;17892;52.080;9.006;2023-07-30T01:32:52;4.00;;;2.17;;
31262;SDS011;17892;52.080;9.006;2023-07-30T01:35:21;4.40;;;1.83;;
31262;SDS011;17892;52.080;9.006;2023-07-30T01:37:52;3.47;;;1.95;;
31262;SDS011;17892;52.080;9.006;2023-07-30T01:40:18;4.72;;;2.25;;
31262;SDS011;17892;52.080;9.006;2023-07-30T01:42:45;5.07;;;2.70;;
31262;SDS011;17892;52.080;9.006;2023-07-30T01:45:11;3.28;;;2.08;;
31262;SDS011;17892;52.080;9.006;2023-07-30T01:47:37;4.45;;;2.08;;
31262;SDS011;17892;52.080;9.006;2023-07-30T01:50:03;5.20;;;2.35;;
31262;SDS011;17892;52.080;9.006;2023-07-30T01:52:29;6.75;;;2.40;;
31262;SDS011;17892;52.080;9.006;2023-07-30T01:54:55;3.33;;;2.30;;
31262;SDS011;17892;52.080;9.006;2023-07-30T01:57:24;8.15;;;2.47;;
31262;SDS011;17892;52.080;9.006;2023-07-30T01:59:49;4.70;;;2.10;;
31262;SDS011;17892;52.080;9.006;2023-07-30T02:02:15;3.83;;;1.80;;
31262;SDS011;17892;52.080;9.006;2023-07-30T02:04:41;5.68;;;1.83;;
31262;SDS011;17892;52.080;9.006;2023-07-30T02:07:07;3.83;;;2.13;;
31262;SDS011;17892;52.080;9.006;2023-07-30T02:09:32;4.90;;;1.85;;
31262;SDS011;17892;52.080;9.006;2023-07-30T02:11:58;5.10;;;1.92;;
31262;SDS011;17892;52.080;9.006;2023-07-30T02:14:24;3.78;;;1.73;;
31262;SDS011;17892;52.080;9.006;2023-07-30T02:16:50;4.45;;;1.67;;
31262;SDS011;17892;52.080;9.006;2023-07-30T02:19:15;3.75;;;1.65;;
31262;SDS011;17892;52.080;9.006;2023-07-30T02:21:41;3.72;;;1.95;;
31262;SDS011;17892;52.080;9.006;2023-07-30T02:24:08;4.18;;;2.00;;
31262;SDS011;17892;52.080;9.006;2023-07-30T02:26:36;3.67;;;1.63;;
31262;SDS011;17892;52.080;9.006;2023-07-30T02:29:05;3.80;;;1.83;;
31262;SDS011;17892;52.080;9.006;2023-07-30T02:31:31;4.93;;;1.50;;
31262;SDS011;17892;52.080;9.006;2023-07-30T02:33:57;3.70;;;1.77;;
31262;SDS011;17892;52.080;9.006;2023-07-30T02:36:23;3.38;;;1.38;;
31262;SDS011;17892;52.080;9.006;2023-07-30T02:38:49;4.80;;;1.70;;
31262;SDS011;17892;52.080;9.006;2023-07-30T02:41:15;4.30;;;1.60;;
31262;SDS011;17892;52.080;9.006;2023-07-30T02:43:41;4.25;;;1.67;;
31262;SDS011;17892;52.080;9.006;2023-07-30T02:46:07;4.03;;;1.77;;
31262;SDS011;17892;52.080;9.006;2023-07-30T02:48:32;3.67;;;1.55;;
31262;SDS011;17892;52.080;9.006;2023-07-30T02:50:58;5.85;;;1.65;;
31262;SDS011;17892;52.080;9.006;2023-07-30T02:53:24;6.35;;;2.20;;
31262;SDS011;17892;52.080;9.006;2023-07-30T02:55:50;3.40;;;1.55;;
31262;SDS011;17892;52.080;9.006;2023-07-30T02:58:15;4.40;;;1.80;;
31262;SDS011;17892;52.080;9.006;2023-07-30T03:00:41;4.13;;;2.00;;
31262;SDS011;17892;52.080;9.006;2023-07-30T03:03:07;3.63;;;1.70;;
31262;SDS011;17892;52.080;9.006;2023-07-30T03:05:32;4.43;;;2.38;;
31262;SDS011;17892;52.080;9.006;2023-07-30T03:07:58;4.10;;;1.95;;
31262;SDS011;17892;52.080;9.006;2023-07-30T03:10:24;7.07;;;2.08;;
31262;SDS011;17892;52.080;9.006;2023-07-30T03:12:50;4.78;;;2.15;;
31262;SDS011;17892;52.080;9.006;2023-07-30T03:15:15;5.50;;;2.55;;
31262;SDS011;17892;52.080;9.006;2023-07-30T03:17:41;7.93;;;3.00;;
31262;SDS011;17892;52.080;9.006;2023-07-30T03:20:07;6.60;;;2.97;;
31262;SDS011;17892;52.080;9.006;2023-07-30T03:22:33;5.63;;;3.20;;
31262;SDS011;17892;52.080;9.006;2023-07-30T03:24:59;6.72;;;3.92;;
31262;SDS011;17892;52.080;9.006;2023-07-30T03:27:25;7.13;;;3.75;;
31262;SDS011;17892;52.080;9.006;2023-07-30T03:29:51;7.68;;;4.40;;
31262;SDS011;17892;52.080;9.006;2023-07-30T03:32:16;8.35;;;4.55;;
31262;SDS011;17892;52.080;9.006;2023-07-30T03:34:42;7.57;;;4.68;;
31262;SDS011;17892;52.080;9.006;2023-07-30T03:37:08;6.25;;;4.13;;
31262;SDS011;17892;52.080;9.006;2023-07-30T03:39:33;8.10;;;4.35;;
31262;SDS011;17892;52.080;9.006;2023-07-30T03:41:59;10.63;;;5.60;;
31262;SDS011;17892;52.080;9.006;2023-07-30T03:44:25;9.45;;;5.82;;
31262;SDS011;17892;52.080;9.006;2023-07-30T03:46:51;10.07;;;6.57;;
31262;SDS011;17892;52.080;9.006;2023-07-30T03:49:17;10.00;;;5.82;;
31262;SDS011;17892;52.080;9.006;2023-07-30T03:51:43;8.38;;;5.18;;
31262;SDS011;17892;52.080;9.006;2023-07-30T03:54:08;10.57;;;5.15;;
31262;SDS011;17892;52.080;9.006;2023-07-30T03:56:34;10.68;;;5.55;;
31262;SDS011;17892;52.080;9.006;2023-07-30T03:59:00;8.20;;;4.82;;
31262;SDS011;17892;52.080;9.006;2023-07-30T04:01:25;6.82;;;4.22;;
31262;SDS011;17892;52.080;9.006;2023-07-30T04:03:52;7.45;;;4.28;;
31262;SDS011;17892;52.080;9.006;2023-07-30T04:06:18;7.60;;;4.07;;
31262;SDS011;17892;52.080;9.006;2023-07-30T04:08:44;7.32;;;3.55;;
31262;SDS011;17892;52.080;9.006;2023-07-30T04:11:09;6.57;;;3.85;;
31262;SDS011;17892;52.080;9.006;2023-07-30T04:13:35;7.22;;;3.60;;
31262;SDS011;17892;52.080;9.006;2023-07-30T04:16:01;5.80;;;3.15;;
31262;SDS011;17892;52.080;9.006;2023-07-30T04:18:26;6.13;;;3.17;;
31262;SDS011;17892;52.080;9.006;2023-07-30T04:20:54;5.20;;;2.60;;
31262;SDS011;17892;52.080;9.006;2023-07-30T04:23:22;6.10;;;2.53;;
31262;SDS011;17892;52.080;9.006;2023-07-30T04:25:48;4.70;;;2.63;;
31262;SDS011;17892;52.080;9.006;2023-07-30T04:28:15;6.85;;;2.63;;
31262;SDS011;17892;52.080;9.006;2023-07-30T04:30:41;4.28;;;2.28;;
31262;SDS011;17892;52.080;9.006;2023-07-30T04:33:07;5.30;;;2.40;;
31262;SDS011;17892;52.080;9.006;2023-07-30T04:35:32;4.13;;;1.92;;
31262;SDS011;17892;52.080;9.006;2023-07-30T04:37:58;3.65;;;1.70;;
31262;SDS011;17892;52.080;9.006;2023-07-30T04:40:24;4.53;;;2.17;;
31262;SDS011;17892;52.080;9.006;2023-07-30T04:42:50;5.40;;;2.20;;
31262;SDS011;17892;52.080;9.006;2023-07-30T04:45:15;6.60;;;2.00;;
31262;SDS011;17892;52.080;9.006;2023-07-30T04:47:41;5.32;;;2.38;;
31262;SDS011;17892;52.080;9.006;2023-07-30T04:50:07;4.85;;;1.95;;
31262;SDS011;17892;52.080;9.006;2023-07-30T04:52:33;4.22;;;1.98;;
31262;SDS011;17892;52.080;9.006;2023-07-30T04:54:59;4.15;;;1.80;;
31262;SDS011;17892;52.080;9.006;2023-07-30T04:57:25;5.20;;;1.75;;
31262;SDS011;17892;52.080;9.006;2023-07-30T04:59:51;3.10;;;1.60;;
31262;SDS011;17892;52.080;9.006;2023-07-30T05:02:16;4.05;;;1.75;;
31262;SDS011;17892;52.080;9.006;2023-07-30T05:04:42;5.05;;;1.63;;
31262;SDS011;17892;52.080;9.006;2023-07-30T05:07:08;4.40;;;1.50;;
31262;SDS011;17892;52.080;9.006;2023-07-30T05:09:33;3.90;;;1.65;;
31262;SDS011;17892;52.080;9.006;2023-07-30T05:11:59;3.97;;;1.42;;
31262;SDS011;17892;52.080;9.006;2023-07-30T05:14:25;4.85;;;1.65;;
31262;SDS011;17892;52.080;9.006;2023-07-30T05:16:50;3.45;;;1.40;;
31262;SDS011;17892;52.080;9.006;2023-07-30T05:19:16;4.88;;;1.73;;
31262;SDS011;17892;52.080;9.006;2023-07-30T05:21:42;7.50;;;2.22;;
31262;SDS011;17892;52.080;9.006;2023-07-30T05:24:07;4.32;;;1.40;;
31262;SDS011;17892;52.080;9.006;2023-07-30T05:26:33;2.72;;;1.40;;
31262;SDS011;17892;52.080;9.006;2023-07-30T05:28:59;4.78;;;1.50;;
31262;SDS011;17892;52.080;9.006;2023-07-30T05:31:25;3.63;;;1.40;;
31262;SDS011;17892;52.080;9.006;2023-07-30T05:33:51;3.92;;;1.35;;
31262;SDS011;17892;52.080;9.006;2023-07-30T05:36:17;3.92;;;1.35;;
31262;SDS011;17892;52.080;9.006;2023-07-30T05:38:43;2.30;;;1.02;;
31262;SDS011;17892;52.080;9.006;2023-07-30T05:41:08;4.72;;;1.60;;
31262;SDS011;17892;52.080;9.006;2023-07-30T05:43:34;3.50;;;1.60;;
31262;SDS011;17892;52.080;9.006;2023-07-30T05:46:00;6.60;;;1.63;;
31262;SDS011;17892;52.080;9.006;2023-07-30T05:48:25;2.75;;;1.40;;
31262;SDS011;17892;52.080;9.006;2023-07-30T05:50:51;4.32;;;1.40;;
31262;SDS011;17892;52.080;9.006;2023-07-30T05:53:17;2.83;;;1.67;;
31262;SDS011;17892;52.080;9.006;2023-07-30T05:55:42;3.40;;;1.30;;
31262;SDS011;17892;52.080;9.006;2023-07-30T05:58:08;4.70;;;1.73;;
31262;SDS011;17892;52.080;9.006;2023-07-30T06:00:34;5.50;;;1.45;;
31262;SDS011;17892;52.080;9.006;2023-07-30T06:03:01;2.90;;;1.40;;
31262;SDS011;17892;52.080;9.006;2023-07-30T06:05:26;5.22;;;1.40;;
31262;SDS011;17892;52.080;9.006;2023-07-30T06:07:52;2.58;;;1.20;;
31262;SDS011;17892;52.080;9.006;2023-07-30T06:10:18;3.50;;;1.30;;
31262;SDS011;17892;52.080;9.006;2023-07-30T06:12:44;4.43;;;1.55;;
31262;SDS011;17892;52.080;9.006;2023-07-30T06:15:09;4.53;;;1.48;;
31262;SDS011;17892;52.080;9.006;2023-07-30T06:17:35;5.60;;;1.30;;
31262;SDS011;17892;52.080;9.006;2023-07-30T06:20:01;4.30;;;1.45;;
31262;SDS011;17892;52.080;9.006;2023-07-30T06:22:28;4.28;;;1.67;;
31262;SDS011;17892;52.080;9.006;2023-07-30T06:24:54;4.18;;;1.98;;
31262;SDS011;17892;52.080;9.006;2023-07-30T06:27:19;3.88;;;1.90;;
31262;SDS011;17892;52.080;9.006;2023-07-30T06:29:45;5.35;;;1.80;;
31262;SDS011;17892;52.080;9.006;2023-07-30T06:32:11;5.15;;;2.05;;
31262;SDS011;17892;52.080;9.006;2023-07-30T06:34:37;5.00;;;1.83;;
31262;SDS011;17892;52.080;9.006;2023-07-30T06:37:02;3.92;;;1.73;;
31262;SDS011;17892;52.080;9.006;2023-07-30T06:39:28;5.57;;;1.77;;
31262;SDS011;17892;52.080;9.006;2023-07-30T06:41:54;4.45;;;2.20;;
31262;SDS011;17892;52.080;9.006;2023-07-30T06:44:20;5.50;;;2.35;;
31262;SDS011;17892;52.080;9.006;2023-07-30T06:46:46;5.38;;;2.10;;
31262;SDS011;17892;52.080;9.006;2023-07-30T06:49:11;6.72;;;2.00;;
31262;SDS011;17892;52.080;9.006;2023-07-30T06:51:37;6.18;;;1.95;;
31262;SDS011;17892;52.080;9.006;2023-07-30T06:54:03;4.70;;;2.22;;
31262;SDS011;17892;52.080;9.006;2023-07-30T06:56:28;5.63;;;2.63;;
31262;SDS011;17892;52.080;9.006;2023-07-30T06:58:54;5.78;;;2.65;;
31262;SDS011;17892;52.080;9.006;2023-07-30T07:01:20;4.35;;;2.10;;
31262;SDS011;17892;52.080;9.006;2023-07-30T07:03:46;4.63;;;2.20;;
31262;SDS011;17892;52.080;9.006;2023-07-30T07:06:11;4.70;;;2.28;;
31262;SDS011;17892;52.080;9.006;2023-07-30T07:08:37;5.72;;;2.38;;
31262;SDS011;17892;52.080;9.006;2023-07-30T07:11:03;7.15;;;2.85;;
31262;SDS011;17892;52.080;9.006;2023-07-30T07:13:28;6.38;;;3.22;;
31262;SDS011;17892;52.080;9.006;2023-07-30T07:15:54;6.30;;;3.65;;
31262;SDS011;17892;52.080;9.006;2023-07-30T07:18:20;4.10;;;3.28;;
31262;SDS011;17892;52.080;9.006;2023-07-30T07:20:45;5.70;;;3.47;;
31262;SDS011;17892;52.080;9.006;2023-07-30T07:23:11;6.78;;;4.00;;
31262;SDS011;17892;52.080;9.006;2023-07-30T07:25:37;5.85;;;3.80;;
31262;SDS011;17892;52.080;9.006;2023-07-30T07:28:02;5.97;;;3.63;;
31262;SDS011;17892;52.080;9.006;2023-07-30T07:30:28;5.70;;;3.38;;
31262;SDS011;17892;52.080;9.006;2023-07-30T07:32:54;6.00;;;3.30;;
31262;SDS011;17892;52.080;9.006;2023-07-30T07:35:20;5.43;;;3.20;;
31262;SDS011;17892;52.080;9.006;2023-07-30T07:37:47;4.55;;;3.05;;
31262;SDS011;17892;52.080;9.006;2023-07-30T07:40:12;5.95;;;3.72;;
31262;SDS011;17892;52.080;9.006;2023-07-30T07:42:38;5.85;;;3.05;;
31262;SDS011;17892;52.080;9.006;2023-07-30T07:45:07;3.90;;;2.95;;
31262;SDS011;17892;52.080;9.006;2023-07-30T07:47:33;4.35;;;3.00;;
31262;SDS011;17892;52.080;9.006;2023-07-30T07:49:59;6.38;;;3.25;;
31262;SDS011;17892;52.080;9.006;2023-07-30T07:52:25;5.28;;;3.13;;
31262;SDS011;17892;52.080;9.006;2023-07-30T07:54:51;5.18;;;3.28;;
31262;SDS011;17892;52.080;9.006;2023-07-30T07:57:16;5.85;;;3.53;;
31262;SDS011;17892;52.080;9.006;2023-07-30T07:59:42;5.63;;;3.83;;
31262;SDS011;17892;52.080;9.006;2023-07-30T08:02:10;8.85;;;4.15;;
31262;SDS011;17892;52.080;9.006;2023-07-30T08:04:37;5.43;;;3.80;;
31262;SDS011;17892;52.080;9.006;2023-07-30T08:07:03;5.00;;;2.90;;
31262;SDS011;17892;52.080;9.006;2023-07-30T08:09:29;3.88;;;2.97;;
31262;SDS011;17892;52.080;9.006;2023-07-30T08:11:56;5.38;;;3.17;;
31262;SDS011;17892;52.080;9.006;2023-07-30T08:14:22;6.00;;;3.92;;
31262;SDS011;17892;52.080;9.006;2023-07-30T08:16:47;6.85;;;4.53;;
31262;SDS011;17892;52.080;9.006;2023-07-30T08:19:13;6.05;;;3.72;;
31262;SDS011;17892;52.080;9.006;2023-07-30T08:21:39;4.93;;;3.70;;
31262;SDS011;17892;52.080;9.006;2023-07-30T08:24:04;6.07;;;3.80;;
31262;SDS011;17892;52.080;9.006;2023-07-30T08:26:31;6.65;;;4.25;;
31262;SDS011;17892;52.080;9.006;2023-07-30T08:28:57;5.45;;;4.07;;
31262;SDS011;17892;52.080;9.006;2023-07-30T08:31:23;5.55;;;4.15;;
31262;SDS011;17892;52.080;9.006;2023-07-30T08:33:49;7.57;;;4.90;;
31262;SDS011;17892;52.080;9.006;2023-07-30T08:36:15;7.07;;;4.20;;
31262;SDS011;17892;52.080;9.006;2023-07-30T08:38:40;6.78;;;4.53;;
31262;SDS011;17892;52.080;9.006;2023-07-30T08:41:06;5.63;;;3.95;;
31262;SDS011;17892;52.080;9.006;2023-07-30T08:43:33;7.32;;;3.95;;
31262;SDS011;17892;52.080;9.006;2023-07-30T08:46:00;5.47;;;4.20;;
31262;SDS011;17892;52.080;9.006;2023-07-30T08:48:26;7.20;;;4.03;;
31262;SDS011;17892;52.080;9.006;2023-07-30T08:50:54;6.28;;;4.15;;
31262;SDS011;17892;52.080;9.006;2023-07-30T08:53:24;5.65;;;4.00;;
31262;SDS011;17892;52.080;9.006;2023-07-30T08:55:51;8.30;;;4.38;;
31262;SDS011;17892;52.080;9.006;2023-07-30T08:58:19;6.43;;;4.18;;
31262;SDS011;17892;52.080;9.006;2023-07-30T09:00:46;7.82;;;4.57;;
31262;SDS011;17892;52.080;9.006;2023-07-30T09:03:16;6.40;;;4.75;;
31262;SDS011;17892;52.080;9.006;2023-07-30T09:05:43;6.45;;;4.70;;
31262;SDS011;17892;52.080;9.006;2023-07-30T09:08:09;7.18;;;4.65;;
31262;SDS011;17892;52.080;9.006;2023-07-30T09:10:35;8.55;;;4.63;;
31262;SDS011;17892;52.080;9.006;2023-07-30T09:13:01;6.60;;;4.07;;
31262;SDS011;17892;52.080;9.006;2023-07-30T09:15:31;6.22;;;4.97;;
31262;SDS011;17892;52.080;9.006;2023-07-30T09:18:05;7.95;;;4.57;;
31262;SDS011;17892;52.080;9.006;2023-07-30T09:20:39;8.43;;;5.10;;
31262;SDS011;17892;52.080;9.006;2023-07-30T09:23:06;6.95;;;4.80;;
31262;SDS011;17892;52.080;9.006;2023-07-30T09:25:34;6.97;;;4.57;;
31262;SDS011;17892;52.080;9.006;2023-07-30T09:28:01;7.93;;;4.68;;
31262;SDS011;17892;52.080;9.006;2023-07-30T09:30:27;7.18;;;5.20;;
31262;SDS011;17892;52.080;9.006;2023-07-30T09:32:54;8.15;;;5.93;;
31262;SDS011;17892;52.080;9.006;2023-07-30T09:35:21;10.57;;;5.97;;
31262;SDS011;17892;52.080;9.006;2023-07-30T09:38:02;9.32;;;6.22;;
31262;SDS011;17892;52.080;9.006;2023-07-30T09:40:35;12.38;;;6.57;;
31262;SDS011;17892;52.080;9.006;2023-07-30T09:43:03;15.15;;;7.97;;
31262;SDS011;17892;52.080;9.006;2023-07-30T09:45:33;11.77;;;7.15;;
31262;SDS011;17892;52.080;9.006;2023-07-30T09:48:01;12.40;;;7.75;;
31262;SDS011;17892;52.080;9.006;2023-07-30T09:50:30;13.20;;;7.78;;
31262;SDS011;17892;52.080;9.006;2023-07-30T09:52:58;11.52;;;7.68;;
31262;SDS011;17892;52.080;9.006;2023-07-30T09:55:26;14.02;;;7.63;;
31262;SDS011;17892;52.080;9.006;2023-07-30T09:57:52;13.68;;;8.35;;
31262;SDS011;17892;52.080;9.006;2023-07-30T10:00:18;9.57;;;7.28;;
31262;SDS011;17892;52.080;9.006;2023-07-30T10:02:47;11.07;;;6.60;;
31262;SDS011;17892;52.080;9.006;2023-07-30T10:05:15;12.32;;;7.32;;
31262;SDS011;17892;52.080;9.006;2023-07-30T10:07:51;15.18;;;8.40;;
31262;SDS011;17892;52.080;9.006;2023-07-30T10:10:21;10.52;;;6.65;;
31262;SDS011;17892;52.080;9.006;2023-07-30T10:12:49;14.38;;;7.95;;
31262;SDS011;17892;52.080;9.006;2023-07-30T10:15:21;11.82;;;7.53;;
31262;SDS011;17892;52.080;9.006;2023-07-30T10:17:48;11.70;;;7.72;;
31262;SDS011;17892;52.080;9.006;2023-07-30T10:20:19;12.57;;;7.25;;
31262;SDS011;17892;52.080;9.006;2023-07-30T10:22:51;12.07;;;7.72;;
31262;SDS011;17892;52.080;9.006;2023-07-30T10:25:22;10.20;;;7.57;;
31262;SDS011;17892;52.080;9.006;2023-07-30T10:28:33;16.15;;;8.32;;
31262;SDS011;17892;52.080;9.006;2023-07-30T10:31:02;10.35;;;7.35;;
31262;SDS011;17892;52.080;9.006;2023-07-30T10:37:03;11.48;;;7.30;;
31262;SDS011;17892;52.080;9.006;2023-07-30T10:39:18;10.38;;;6.72;;
31262;SDS011;17892;52.080;9.006;2023-07-30T10:41:54;12.00;;;8.00;;
31262;SDS011;17892;52.080;9.006;2023-07-30T10:44:23;12.77;;;7.72;;
31262;SDS011;17892;52.080;9.006;2023-07-30T10:46:57;8.88;;;6.35;;
31262;SDS011;17892;52.080;9.006;2023-07-30T10:49:25;8.50;;;5.95;;
31262;SDS011;17892;52.080;9.006;2023-07-30T10:51:52;7.95;;;4.95;;
31262;SDS011;17892;52.080;9.006;2023-07-30T10:54:24;7.60;;;5.05;;
31262;SDS011;17892;52.080;9.006;2023-07-30T10:56:50;8.20;;;4.72;;
31262;SDS011;17892;52.080;9.006;2023-07-30T10:59:16;10.00;;;4.70;;
31262;SDS011;17892;52.080;9.006;2023-07-30T11:01:44;6.72;;;4.20;;
31262;SDS011;17892;52.080;9.006;2023-07-30T11:06:49;7.65;;;4.50;;
31262;SDS011;17892;52.080;9.006;2023-07-30T11:09:23;6.75;;;4.40;;
31262;SDS011;17892;52.080;9.006;2023-07-30T11:11:52;8.13;;;4.28;;
31262;SDS011;17892;52.080;9.006;2023-07-30T11:14:23;6.55;;;4.22;;
31262;SDS011;17892;52.080;9.006;2023-07-30T11:16:53;7.40;;;5.25;;
31262;SDS011;17892;52.080;9.006;2023-07-30T11:19:26;6.82;;;4.57;;
31262;SDS011;17892;52.080;9.006;2023-07-30T11:21:53;7.95;;;4.95;;
31262;SDS011;17892;52.080;9.006;2023-07-30T11:24:22;7.30;;;5.05;;
31262;SDS011;17892;52.080;9.006;2023-07-30T11:27:01;8.57;;;4.85;;
31262;SDS011;17892;52.080;9.006;2023-07-30T11:29:28;8.93;;;5.15;;
31262;SDS011;17892;52.080;9.006;2023-07-30T11:31:57;9.27;;;4.90;;
31262;SDS011;17892;52.080;9.006;2023-07-30T11:34:24;7.55;;;4.65;;
31262;SDS011;17892;52.080;9.006;2023-07-30T11:36:51;8.48;;;4.68;;
31262;SDS011;17892;52.080;9.006;2023-07-30T11:39:18;6.78;;;5.05;;
31262;SDS011;17892;52.080;9.006;2023-07-30T11:41:45;7.45;;;4.55;;
31262;SDS011;17892;52.080;9.006;2023-07-30T11:44:28;7.15;;;4.40;;
31262;SDS011;17892;52.080;9.006;2023-07-30T11:47:00;9.05;;;4.50;;
31262;SDS011;17892;52.080;9.006;2023-07-30T11:49:26;8.13;;;4.47;;
31262;SDS011;17892;52.080;9.006;2023-07-30T11:52:03;7.70;;;4.50;;
31262;SDS011;17892;52.080;9.006;2023-07-30T11:54:33;7.45;;;4.10;;
31262;SDS011;17892;52.080;9.006;2023-07-30T11:56:59;7.18;;;4.13;;
31262;SDS011;17892;52.080;9.006;2023-07-30T11:59:25;6.20;;;3.83;;
31262;SDS011;17892;52.080;9.006;2023-07-30T12:01:51;8.45;;;3.97;;
31262;SDS011;17892;52.080;9.006;2023-07-30T12:04:17;6.63;;;3.67;;
31262;SDS011;17892;52.080;9.006;2023-07-30T12:09:15;7.10;;;4.07;;
31262;SDS011;17892;52.080;9.006;2023-07-30T12:11:51;7.53;;;4.05;;
31262;SDS011;17892;52.080;9.006;2023-07-30T12:14:25;6.05;;;3.75;;
31262;SDS011;17892;52.080;9.006;2023-07-30T12:17:13;6.40;;;3.17;;
31262;SDS011;17892;52.080;9.006;2023-07-30T12:19:39;5.78;;;3.42;;
31262;SDS011;17892;52.080;9.006;2023-07-30T12:22:06;5.07;;;2.72;;
31262;SDS011;17892;52.080;9.006;2023-07-30T12:24:32;5.28;;;2.95;;
31262;SDS011;17892;52.080;9.006;2023-07-30T12:26:58;5.45;;;2.92;;
31262;SDS011;17892;52.080;9.006;2023-07-30T12:29:24;3.92;;;2.65;;
31262;SDS011;17892;52.080;9.006;2023-07-30T12:31:50;5.05;;;2.30;;
31262;SDS011;17892;52.080;9.006;2023-07-30T12:34:21;5.20;;;2.25;;
31262;SDS011;17892;52.080;9.006;2023-07-30T12:36:48;4.28;;;1.95;;
31262;SDS011;17892;52.080;9.006;2023-07-30T12:39:14;4.70;;;2.15;;
31262;SDS011;17892;52.080;9.006;2023-07-30T12:41:40;4.40;;;1.83;;
31262;SDS011;17892;52.080;9.006;2023-07-30T12:44:05;4.93;;;2.10;;
31262;SDS011;17892;52.080;9.006;2023-07-30T12:46:31;6.38;;;2.20;;
31262;SDS011;17892;52.080;9.006;2023-07-30T12:48:57;4.55;;;1.85;;
31262;SDS011;17892;52.080;9.006;2023-07-30T12:51:31;3.45;;;1.92;;
31262;SDS011;17892;52.080;9.006;2023-07-30T12:53:57;3.65;;;1.90;;
31262;SDS011;17892;52.080;9.006;2023-07-30T12:56:23;3.85;;;2.03;;
31262;SDS011;17892;52.080;9.006;2023-07-30T12:58:48;3.97;;;1.73;;
31262;SDS011;17892;52.080;9.006;2023-07-30T13:01:14;4.47;;;2.45;;
31262;SDS011;17892;52.080;9.006;2023-07-30T13:03:40;4.93;;;2.10;;
31262;SDS011;17892;52.080;9.006;2023-07-30T13:06:10;8.05;;;2.03;;
31262;SDS011;17892;52.080;9.006;2023-07-30T13:08:38;3.97;;;1.90;;
31262;SDS011;17892;52.080;9.006;2023-07-30T13:11:05;5.03;;;2.22;;
31262;SDS011;17892;52.080;9.006;2023-07-30T13:13:31;3.03;;;1.90;;
31262;SDS011;17892;52.080;9.006;2023-07-30T13:15:57;4.15;;;1.95;;
31262;SDS011;17892;52.080;9.006;2023-07-30T13:18:26;3.47;;;1.77;;
31262;SDS011;17892;52.080;9.006;2023-07-30T13:20:52;3.35;;;1.70;;
31262;SDS011;17892;52.080;9.006;2023-07-30T13:23:18;5.95;;;1.77;;
31262;SDS011;17892;52.080;9.006;2023-07-30T13:25:44;4.57;;;1.90;;
31262;SDS011;17892;52.080;9.006;2023-07-30T13:28:10;4.32;;;1.70;;
31262;SDS011;17892;52.080;9.006;2023-07-30T13:30:35;4.00;;;1.40;;
31262;SDS011;17892;52.080;9.006;2023-07-30T13:33:01;2.58;;;1.42;;
31262;SDS011;17892;52.080;9.006;2023-07-30T13:35:27;3.78;;;1.75;;
31262;SDS011;17892;52.080;9.006;2023-07-30T13:37:53;4.68;;;1.50;;
31262;SDS011;17892;52.080;9.006;2023-07-30T13:40:19;4.03;;;1.40;;
31262;SDS011;17892;52.080;9.006;2023-07-30T13:42:45;3.13;;;1.35;;
31262;SDS011;17892;52.080;9.006;2023-07-30T13:45:10;4.15;;;1.63;;
31262;SDS011;17892;52.080;9.006;2023-07-30T13:47:36;4.65;;;1.42;;
31262;SDS011;17892;52.080;9.006;2023-07-30T13:50:02;2.85;;;1.38;;
31262;SDS011;17892;52.080;9.006;2023-07-30T13:52:28;3.90;;;1.30;;
31262;SDS011;17892;52.080;9.006;2023-07-30T13:54:54;4.68;;;1.13;;
31262;SDS011;17892;52.080;9.006;2023-07-30T13:57:23;2.60;;;1.10;;
31262;SDS011;17892;52.080;9.006;2023-07-30T13:59:50;2.67;;;1.20;;
31262;SDS011;17892;52.080;9.006;2023-07-30T14:02:17;2.33;;;1.08;;
31262;SDS011;17892;52.080;9.006;2023-07-30T14:04:44;3.60;;;1.05;;
31262;SDS011;17892;52.080;9.006;2023-07-30T14:07:09;2.53;;;1.02;;
31262;SDS011;17892;52.080;9.006;2023-07-30T14:09:35;5.68;;;1.05;;
31262;SDS011;17892;52.080;9.006;2023-07-30T14:12:02;4.15;;;1.30;;
31262;SDS011;17892;52.080;9.006;2023-07-30T14:14:29;5.78;;;1.45;;
31262;SDS011;17892;52.080;9.006;2023-07-30T14:16:54;3.75;;;1.20;;
31262;SDS011;17892;52.080;9.006;2023-07-30T14:19:20;3.97;;;1.17;;
31262;SDS011;17892;52.080;9.006;2023-07-30T14:21:46;2.67;;;1.25;;
31262;SDS011;17892;52.080;9.006;2023-07-30T14:24:12;3.70;;;1.10;;
31262;SDS011;17892;52.080;9.006;2023-07-30T14:26:38;2.78;;;1.30;;
31262;SDS011;17892;52.080;9.006;2023-07-30T14:29:04;2.75;;;0.98;;
31262;SDS011;17892;52.080;9.006;2023-07-30T14:31:30;2.67;;;0.80;;
31262;SDS011;17892;52.080;9.006;2023-07-30T14:33:56;2.38;;;0.73;;
31262;SDS011;17892;52.080;9.006;2023-07-30T14:36:23;3.13;;;0.90;;
31262;SDS011;17892;52.080;9.006;2023-07-30T14:38:48;1.73;;;0.70;;
31262;SDS011;17892;52.080;9.006;2023-07-30T14:41:14;2.80;;;0.80;;
31262;SDS011;17892;52.080;9.006;2023-07-30T14:43:40;1.55;;;0.60;;
31262;SDS011;17892;52.080;9.006;2023-07-30T14:46:06;2.03;;;0.77;;
31262;SDS011;17892;52.080;9.006;2023-07-30T14:48:38;2.55;;;0.80;;
31262;SDS011;17892;52.080;9.006;2023-07-30T14:51:06;4.15;;;0.77;;
31262;SDS011;17892;52.080;9.006;2023-07-30T14:53:32;2.47;;;0.80;;
31262;SDS011;17892;52.080;9.006;2023-07-30T14:55:58;2.72;;;0.90;;